Time;durP1;ratioP1;P1;durP2;ratioP2;P2;SDS_P1;SDS_P2;PMS_P1;PMS_P2;Temp;Humidity;BMP_temperature;BMP_pressure;BME280_temperature;BME280_humidity;BME280_pressure;Samples;Min_cycle;Max_cycle;Signal;HPM_P1;HPM_P2
2021/01/21 00:00:42;;;;;;;79.53;36.83;;;;;;;-0.18;77.17;98142.19;2287872;78;21082;-80
2021/01/21 00:03:43;;;;;;;74.07;37.23;;;;;;;-0.21;77.29;98133.48;2287796;78;21078;-83
2021/01/21 00:06:47;;;;;;;80.07;40.03;;;;;;;-0.23;77.17;98136.39;2288206;78;21114;-79
2021/01/21 00:09:48;;;;;;;78.50;39.77;;;;;;;-0.26;77.27;98137.55;2287987;78;21113;-78
2021/01/21 00:12:50;;;;;;;78.90;37.13;;;;;;;-0.29;77.25;98129.72;2287966;78;21135;-79
2021/01/21 00:15:51;;;;;;;77.57;38.83;;;;;;;-0.31;77.23;98141.20;2288083;78;21141;-78
2021/01/21 00:18:55;;;;;;;86.90;40.73;;;;;;;-0.34;77.22;98142.35;2287687;78;21130;-79
2021/01/21 00:21:57;;;;;;;71.92;36.65;;;;;;;-0.37;77.22;98137.09;2287704;78;21154;-79
2021/01/21 00:24:59;;;;;;;76.50;35.77;;;;;;;-0.39;77.15;98133.58;2287870;78;21142;-79
2021/01/21 00:28:06;;;;;;;78.70;37.60;;;;;;;-0.39;77.24;98134.46;2287640;78;21396;-78
2021/01/21 00:31:08;;;;;;;78.93;38.67;;;;;;;-0.36;77.21;98122.17;2287858;77;21117;-78
2021/01/21 00:34:09;;;;;;;81.43;39.40;;;;;;;-0.37;77.09;98127.70;2288218;78;21129;-78
2021/01/21 00:37:12;;;;;;;75.23;35.67;;;;;;;-0.39;76.97;98120.36;2287720;78;21130;-78
2021/01/21 00:40:13;;;;;;;76.77;35.33;;;;;;;-0.39;77.14;98123.33;2288374;78;21370;-79
2021/01/21 00:43:17;;;;;;;77.67;37.33;;;;;;;-0.39;77.10;98120.77;2287873;78;21165;-80
2021/01/21 00:46:18;;;;;;;77.30;36.20;;;;;;;-0.40;77.04;98119.01;2288247;78;21392;-80
2021/01/21 00:49:19;;;;;;;74.73;36.40;;;;;;;-0.42;76.98;98119.35;2287988;78;21158;-79
2021/01/21 00:52:20;;;;;;;70.07;33.43;;;;;;;-0.44;77.12;98118.00;2288030;78;21082;-79
2021/01/21 00:55:21;;;;;;;66.87;34.27;;;;;;;-0.43;77.20;98117.19;2287879;78;21344;-80
2021/01/21 00:58:22;;;;;;;71.20;34.23;;;;;;;-0.45;77.19;98123.94;2288411;78;21106;-78
2021/01/21 01:01:23;;;;;;;83.33;37.50;;;;;;;-0.47;77.06;98123.00;2287709;78;21149;-78
2021/01/21 01:04:24;;;;;;;77.30;36.47;;;;;;;-0.48;77.10;98122.53;2287706;78;21105;-78
2021/01/21 01:07:26;;;;;;;72.50;35.00;;;;;;;-0.51;76.99;98125.36;2287430;78;21126;-78
2021/01/21 01:10:27;;;;;;;69.83;34.73;;;;;;;-0.53;77.13;98121.45;2287113;78;21098;-78
2021/01/21 01:13:31;;;;;;;72.57;35.40;;;;;;;-0.54;77.08;98118.82;2287311;78;21114;-80
2021/01/21 01:16:32;;;;;;;73.20;34.13;;;;;;;-0.55;77.09;98118.35;2287369;78;21086;-78
2021/01/21 01:19:34;;;;;;;62.10;32.07;;;;;;;-0.57;77.04;98122.12;2287148;78;21122;-79
2021/01/21 01:22:35;;;;;;;70.20;34.57;;;;;;;-0.58;77.20;98108.84;2287327;78;21142;-79
2021/01/21 01:25:36;;;;;;;71.40;33.03;;;;;;;-0.60;77.05;98110.46;2288046;78;21078;-79
2021/01/21 01:28:37;;;;;;;70.67;34.27;;;;;;;-0.61;77.17;98109.11;2287291;78;21706;-79
2021/01/21 01:31:38;;;;;;;68.90;33.33;;;;;;;-0.63;77.19;98108.17;2287046;78;21122;-78
2021/01/21 01:34:39;;;;;;;65.37;31.73;;;;;;;-0.65;77.24;98101.70;2286980;78;21134;-78
2021/01/21 01:37:42;;;;;;;57.73;30.40;;;;;;;-0.66;77.19;98101.22;2287279;78;21133;-79
2021/01/21 01:40:43;;;;;;;67.20;32.50;;;;;;;-0.67;77.25;98100.34;2287837;78;21389;-78
2021/01/21 01:43:44;;;;;;;67.93;33.53;;;;;;;-0.66;77.21;98100.81;2288341;78;21161;-78
2021/01/21 01:46:45;;;;;;;63.70;30.53;;;;;;;-0.65;77.20;98102.98;2288266;78;21411;-78
2021/01/21 01:49:46;;;;;;;58.03;28.53;;;;;;;-0.67;77.25;98085.38;2287450;78;21157;-78
2021/01/21 01:52:47;;;;;;;58.00;28.60;;;;;;;-0.69;77.25;98085.31;2287926;78;21118;-78
2021/01/21 01:55:51;;;;;;;62.13;29.40;;;;;;;-0.69;77.27;98083.16;2288448;78;21153;-78
2021/01/21 01:58:52;;;;;;;66.17;30.77;;;;;;;-0.70;77.20;98084.84;2287919;78;21424;-80
2021/01/21 02:01:53;;;;;;;64.43;31.00;;;;;;;-0.69;77.29;98078.02;2287898;78;21153;-79
2021/01/21 02:04:54;;;;;;;60.83;30.20;;;;;;;-0.69;77.10;98076.75;2288159;78;21130;-80
2021/01/21 02:07:55;;;;;;;56.53;28.70;;;;;;;-0.72;77.08;98072.77;2288225;78;21137;-79
2021/01/21 02:10:56;;;;;;;55.53;28.43;;;;;;;-0.74;77.09;98076.55;2288147;78;21400;-79
2021/01/21 02:13:57;;;;;;;52.17;28.67;;;;;;;-0.76;77.20;98088.41;2287035;78;21130;-78
2021/01/21 02:16:58;;;;;;;59.00;29.77;;;;;;;-0.77;77.12;98084.09;2287733;78;21130;-78
2021/01/21 02:19:59;;;;;;;60.27;28.77;;;;;;;-0.77;77.07;98089.22;2287805;78;21133;-79
2021/01/21 02:23:00;;;;;;;55.77;27.47;;;;;;;-0.76;76.91;98087.13;2287519;78;21154;-79
2021/01/21 02:26:02;;;;;;;56.83;28.87;;;;;;;-0.78;77.03;98087.47;2288021;78;21114;-79
2021/01/21 02:29:06;;;;;;;60.43;29.93;;;;;;;-0.79;77.13;98087.00;2288113;78;21114;-79
2021/01/21 02:32:09;;;;;;;59.55;31.00;;;;;;;-0.81;77.04;98083.49;2288120;78;21408;-78
2021/01/21 02:35:11;;;;;;;59.33;29.20;;;;;;;-0.83;77.11;98083.83;2288075;78;21122;-78
2021/01/21 02:38:14;;;;;;;57.70;28.93;;;;;;;-0.85;77.08;98086.73;2288278;78;21118;-78
2021/01/21 02:41:15;;;;;;;56.40;29.80;;;;;;;-0.85;77.04;98088.41;2287730;78;21122;-78
2021/01/21 02:44:16;;;;;;;59.00;29.97;;;;;;;-0.88;77.05;98076.72;2287590;78;21094;-79
2021/01/21 02:47:17;;;;;;;54.13;28.27;;;;;;;-0.90;76.95;98080.90;2287230;78;21141;-80
2021/01/21 02:50:18;;;;;;;54.87;27.10;;;;;;;-0.91;76.99;98083.86;2287392;78;21154;-80
2021/01/21 02:53:19;;;;;;;51.03;25.77;;;;;;;-0.90;77.07;98082.18;2286971;78;21134;-79
2021/01/21 02:56:20;;;;;;;53.37;26.70;;;;;;;-0.92;77.02;98082.11;2288036;78;21129;-79
2021/01/21 02:59:21;;;;;;;55.90;27.33;;;;;;;-0.92;77.11;98083.80;2287953;78;21459;-79
2021/01/21 03:02:23;;;;;;;58.53;30.07;;;;;;;-0.95;77.04;98083.26;2287797;78;21165;-79
2021/01/21 03:05:24;;;;;;;62.40;30.57;;;;;;;-0.97;77.07;98083.19;2287156;78;21125;-78
2021/01/21 03:08:25;;;;;;;53.67;27.80;;;;;;;-0.99;76.96;98083.53;2287659;78;21407;-79
2021/01/21 03:11:26;;;;;;;55.37;28.57;;;;;;;-0.99;77.07;98082.66;2287683;78;21534;-80
2021/01/21 03:14:27;;;;;;;53.30;27.13;;;;;;;-1.01;77.05;98086.42;2287854;78;21106;-79
2021/01/21 03:17:28;;;;;;;61.63;30.30;;;;;;;-1.02;77.06;98074.83;2288243;78;21118;-80
2021/01/21 03:20:29;;;;;;;48.13;26.43;;;;;;;-1.03;77.07;98079.48;2287761;78;21169;-79
2021/01/21 03:23:31;;;;;;;50.17;26.47;;;;;;;-1.04;77.10;98079.01;2287198;78;21158;-79
2021/01/21 03:26:33;;;;;;;49.87;26.10;;;;;;;-1.04;77.16;98082.45;2287726;78;21114;-76
2021/01/21 03:32:52;;;;;;;55.57;28.03;;;;;;;-1.01;77.07;98091.95;2211064;79;23372;-81
2021/01/21 03:35:53;;;;;;;50.33;27.67;;;;;;;-1.06;77.15;98091.75;2178557;81;21428;-77
2021/01/21 03:38:55;;;;;;;45.57;25.10;;;;;;;-1.04;77.07;98099.50;2178528;82;21150;-77
2021/01/21 03:41:56;;;;;;;49.33;24.80;;;;;;;-1.05;77.05;98098.62;2178556;81;21129;-78
2021/01/21 03:44:57;;;;;;;46.87;25.90;;;;;;;-1.08;77.00;98083.52;2178953;82;21142;-77
2021/01/21 03:47:58;;;;;;;50.07;27.40;;;;;;;-1.10;77.15;98087.70;2178577;82;21425;-75
2021/01/21 03:50:59;;;;;;;49.80;26.03;;;;;;;-1.11;77.15;98088.50;2178485;82;21222;-77
2021/01/21 03:54:00;;;;;;;46.63;26.03;;;;;;;-1.13;77.13;98083.72;2178626;82;21133;-78
2021/01/21 03:57:01;;;;;;;50.93;26.77;;;;;;;-1.15;77.10;98087.89;2178634;82;21146;-77
2021/01/21 04:00:02;;;;;;;53.83;27.40;;;;;;;-1.16;77.23;98089.98;2178064;82;21157;-79
2021/01/21 04:03:03;;;;;;;54.73;27.73;;;;;;;-1.16;77.21;98089.58;2178155;82;21141;-78
2021/01/21 04:06:04;;;;;;;47.87;26.83;;;;;;;-1.16;77.18;98095.11;2177982;82;21149;-78
2021/01/21 04:09:05;;;;;;;46.93;26.60;;;;;;;-1.16;77.11;98091.27;2177716;82;21412;-78
2021/01/21 04:12:06;;;;;;;49.03;28.63;;;;;;;-1.18;77.06;98083.52;2178138;82;21320;-80
2021/01/21 04:15:09;;;;;;;57.60;28.00;;;;;;;-1.18;77.00;98083.92;2177815;82;21118;-78
2021/01/21 04:18:10;;;;;;;47.63;25.67;;;;;;;-1.18;77.02;98074.95;2177608;82;21264;-77
2021/01/21 04:21:11;;;;;;;44.67;24.13;;;;;;;-1.20;77.06;98073.61;2178340;82;21405;-77
2021/01/21 04:24:13;;;;;;;46.90;25.67;;;;;;;-1.21;76.97;98074.81;2178173;81;21149;-78
2021/01/21 04:27:14;;;;;;;49.43;26.53;;;;;;;-1.23;76.98;98075.15;2178033;81;21139;-77
2021/01/21 04:30:15;;;;;;;51.60;27.27;;;;;;;-1.02;77.19;98068.42;2177910;82;21162;-77
2021/01/21 04:33:16;;;;;;;49.80;26.40;;;;;;;-1.02;77.19;98068.42;2162191;82;21241;-78
2021/01/21 04:36:17;;;;;;;45.30;25.90;;;;;;;-1.07;76.96;98060.54;2162140;82;21136;-80
2021/01/21 04:39:18;;;;;;;48.80;26.47;;;;;;;-1.11;76.83;98053.93;2161070;82;21118;-77
2021/01/21 04:42:19;;;;;;;48.10;26.07;;;;;;;-1.14;77.06;98062.76;2160619;82;21538;-77
2021/01/21 04:45:20;;;;;;;50.17;27.17;;;;;;;-1.15;76.92;98062.28;2159498;82;21158;-80
2021/01/21 04:48:23;;;;;;;50.67;27.53;;;;;;;-1.18;77.07;98053.19;2159435;82;21147;-79
2021/01/21 04:51:24;;;;;;;48.17;26.77;;;;;;;-1.18;77.15;98054.47;2158496;82;21292;-78
2021/01/21 04:54:25;;;;;;;45.47;24.20;;;;;;;-1.18;77.14;98061.75;2158340;82;21304;-77
2021/01/21 04:57:26;;;;;;;51.77;27.00;;;;;;;-1.18;77.17;98059.59;2158269;82;21537;-78
2021/01/21 05:00:27;;;;;;;51.47;27.17;;;;;;;-1.22;77.27;98056.02;2158156;82;21288;-80
2021/01/21 05:03:29;;;;;;;47.10;24.53;;;;;;;-1.21;77.29;98060.33;2158326;82;21257;-79
2021/01/21 05:06:30;;;;;;;46.10;25.37;;;;;;;-1.21;77.29;98060.73;2158461;82;21265;-79
2021/01/21 05:09:31;;;;;;;49.37;25.50;;;;;;;-1.23;77.27;98061.06;2158848;82;21249;-80
2021/01/21 05:12:32;;;;;;;46.90;26.43;;;;;;;-1.26;77.30;98068.61;2159195;82;21281;-80
2021/01/21 05:15:33;;;;;;;45.50;26.60;;;;;;;-1.27;77.28;98067.73;2159368;82;21346;-80
2021/01/21 05:18:34;;;;;;;48.83;26.87;;;;;;;-1.27;77.34;98069.02;2158927;82;21247;-80
2021/01/21 05:21:35;;;;;;;48.13;27.47;;;;;;;-1.26;77.38;98072.45;2159129;82;21269;-80
2021/01/21 05:24:36;;;;;;;48.93;26.70;;;;;;;-1.27;77.32;98065.58;2158662;82;21177;-80
2021/01/21 05:27:38;;;;;;;52.43;26.93;;;;;;;-1.29;77.45;98065.10;2158327;82;21091;-80
2021/01/21 05:30:39;;;;;;;52.47;28.03;;;;;;;-1.31;77.37;98064.16;2160454;82;21292;-80
2021/01/21 05:33:40;;;;;;;53.33;26.80;;;;;;;-1.33;77.33;98064.49;2177112;81;21146;-80
2021/01/21 05:36:41;;;;;;;48.40;27.20;;;;;;;-1.34;77.33;98070.42;2176991;82;21230;-80
2021/01/21 05:39:42;;;;;;;49.33;26.83;;;;;;;-1.35;77.29;98069.95;2177412;81;21292;-80
2021/01/21 05:42:44;;;;;;;55.67;28.13;;;;;;;-1.35;77.23;98072.51;2177286;82;21280;-80
2021/01/21 05:45:45;;;;;;;49.80;25.87;;;;;;;-1.37;77.17;98070.28;2177022;81;21965;-79
2021/01/21 05:48:46;;;;;;;53.03;28.70;;;;;;;-1.41;77.13;98055.59;2176247;82;21253;-80
2021/01/21 05:51:47;;;;;;;52.07;27.80;;;;;;;-1.39;77.28;98068.05;2176694;81;21304;-80
2021/01/21 05:54:48;;;;;;;55.93;30.83;;;;;;;-1.40;77.29;98063.73;2176488;81;21255;-80
2021/01/21 05:57:49;;;;;;;52.77;29.37;;;;;;;-1.39;77.39;98060.77;2176060;81;21240;-80
2021/01/21 06:00:50;;;;;;;45.30;25.87;;;;;;;-1.38;77.36;98062.53;2175894;81;21272;-79
2021/01/21 06:03:51;;;;;;;44.93;25.93;;;;;;;-1.40;77.40;98059.90;2176777;82;21256;-80
2021/01/21 06:06:53;;;;;;;50.53;28.60;;;;;;;-1.17;77.61;98054.94;2176148;81;21272;-80
2021/01/21 06:09:54;;;;;;;51.63;28.63;;;;;;;-1.22;77.17;98065.37;2176352;81;21650;-80
2021/01/21 06:12:55;;;;;;;45.50;27.50;;;;;;;-1.29;77.07;98061.27;2176920;81;21247;-80
2021/01/21 06:15:56;;;;;;;49.70;28.10;;;;;;;-1.31;77.10;98055.59;2176604;81;21252;-80
2021/01/21 06:18:57;;;;;;;47.93;26.17;;;;;;;-1.35;77.12;98057.14;2175917;82;21268;-79
2021/01/21 06:21:58;;;;;;;51.23;28.23;;;;;;;-1.37;77.18;98063.00;2175568;81;21271;-80
2021/01/21 06:25:01;;;;;;;49.70;26.80;;;;;;;-1.41;77.18;98059.83;2176588;81;21260;-80
2021/01/21 06:28:03;;;;;;;50.83;27.90;;;;;;;-1.41;77.25;98064.55;2177153;81;21217;-79
2021/01/21 06:31:04;;;;;;;46.50;27.30;;;;;;;-1.42;77.23;98066.63;2175746;81;21162;-79
2021/01/21 06:34:05;;;;;;;59.57;30.87;;;;;;;-1.44;77.28;98064.81;2176337;81;21122;-80
2021/01/21 06:37:06;;;;;;;52.00;28.73;;;;;;;-1.43;77.44;98070.41;2176335;81;21233;-80
2021/01/21 06:40:07;;;;;;;49.93;28.43;;;;;;;-1.45;77.28;98070.33;2175441;81;21597;-80
2021/01/21 06:43:08;;;;;;;53.13;28.53;;;;;;;-1.43;77.44;98066.56;2176414;81;21833;-80
2021/01/21 06:46:09;;;;;;;76.43;42.00;;;;;;;-1.40;77.53;98071.82;2176171;81;21074;-81
2021/01/21 06:49:11;;;;;;;52.43;28.57;;;;;;;-1.38;77.52;98073.64;2176339;82;21260;-79
2021/01/21 06:52:12;;;;;;;52.00;30.63;;;;;;;-1.32;77.53;98070.48;2176683;81;21618;-79
2021/01/21 06:55:13;;;;;;;47.97;27.70;;;;;;;-1.28;77.43;98069.82;2175812;82;21256;-79
2021/01/21 06:58:14;;;;;;;51.47;29.37;;;;;;;-1.22;77.41;98073.06;2176507;81;21245;-79
2021/01/21 07:01:16;;;;;;;44.00;27.13;;;;;;;-1.19;77.35;98070.23;2176316;82;21256;-80
2021/01/21 07:04:18;;;;;;;45.53;25.43;;;;;;;-1.15;77.36;98078.94;2176185;81;21272;-79
2021/01/21 07:07:20;;;;;;;46.90;27.37;;;;;;;-1.14;77.52;98075.16;2175276;82;21350;-80
2021/01/21 07:10:21;;;;;;;50.80;30.10;;;;;;;-1.08;77.61;98075.84;2175753;81;21297;-80
2021/01/21 07:13:22;;;;;;;50.20;30.10;;;;;;;-1.01;77.41;98068.90;2175907;81;21241;-79
2021/01/21 07:16:23;;;;;;;52.60;29.60;;;;;;;-0.93;77.39;98064.98;2176064;82;21110;-80
2021/01/21 07:19:24;;;;;;;52.67;29.53;;;;;;;-0.83;77.36;98059.48;2175559;81;21256;-79
2021/01/21 07:22:26;;;;;;;52.93;29.03;;;;;;;-0.73;77.21;98062.05;2177144;81;21243;-81
2021/01/21 07:25:27;;;;;;;50.17;28.90;;;;;;;-0.60;77.22;98063.45;2177248;81;21257;-80
2021/01/21 07:28:28;;;;;;;50.40;29.07;;;;;;;-0.52;77.06;98059.52;2176268;81;21276;-80
2021/01/21 07:31:29;;;;;;;49.83;29.00;;;;;;;-0.42;76.98;98061.25;2172348;81;21288;-80
2021/01/21 07:34:30;;;;;;;53.27;28.50;;;;;;;-0.34;76.85;98056.04;2159422;82;21452;-81
2021/01/21 07:37:32;;;;;;;45.00;27.27;;;;;;;-0.22;76.82;98059.92;2158344;82;21233;-79
2021/01/21 07:40:33;;;;;;;49.73;27.90;;;;;;;-0.11;76.69;98056.11;2157639;82;21253;-80
2021/01/21 07:43:34;;;;;;;92.23;55.70;;;;;;;0.02;76.59;98056.23;2158759;82;21554;-80
2021/01/21 07:46:35;;;;;;;50.67;28.53;;;;;;;0.16;76.42;98053.80;2158456;82;21233;-79
2021/01/21 07:49:36;;;;;;;48.73;27.43;;;;;;;0.30;76.15;98048.80;2158292;82;21253;-80
2021/01/21 07:52:38;;;;;;;46.37;27.30;;;;;;;0.40;75.85;98043.62;2159292;82;21289;-80
2021/01/21 07:55:39;;;;;;;41.57;26.80;;;;;;;0.43;75.67;98042.04;2158852;82;21254;-80
2021/01/21 07:58:41;;;;;;;42.53;27.00;;;;;;;0.52;75.56;98045.38;2158323;82;21228;-80
2021/01/21 08:01:42;;;;;;;42.77;26.27;;;;;;;0.55;75.35;98041.23;2159474;82;21142;-80
2021/01/21 08:04:44;;;;;;;40.67;25.50;;;;;;;0.59;75.31;98049.52;2159345;82;21260;-79
2021/01/21 08:07:45;;;;;;;44.47;26.83;;;;;;;0.67;75.23;98052.78;2159080;82;21964;-79
2021/01/21 08:10:46;;;;;;;49.67;28.57;;;;;;;0.73;75.10;98045.30;2159705;82;21301;-80
2021/01/21 08:13:47;;;;;;;45.67;27.33;;;;;;;0.77;75.02;98044.59;2159279;82;21224;-80
2021/01/21 08:16:50;;;;;;;45.50;27.53;;;;;;;0.84;74.99;98040.15;2159422;82;21241;-80
2021/01/21 08:19:51;;;;;;;47.50;28.90;;;;;;;0.95;74.99;98039.76;2160925;82;21223;-79
2021/01/21 08:22:52;;;;;;;48.63;28.43;;;;;;;1.07;74.76;98030.73;2159600;82;21257;-79
2021/01/21 08:25:54;;;;;;;46.07;28.67;;;;;;;1.18;74.65;98032.87;2160877;82;21131;-80
2021/01/21 08:28:55;;;;;;;44.57;27.40;;;;;;;1.31;74.36;98036.75;2160217;82;21111;-79
2021/01/21 08:31:56;;;;;;;40.47;24.73;;;;;;;1.43;74.09;98038.45;2158453;81;21412;-80
2021/01/21 08:34:57;;;;;;;43.17;26.60;;;;;;;1.49;73.59;98033.94;2159102;82;21559;-79
2021/01/21 08:37:58;;;;;;;45.63;26.70;;;;;;;1.57;73.63;98026.94;2160062;82;21138;-80
2021/01/21 08:40:59;;;;;;;39.63;25.53;;;;;;;1.68;73.42;98025.14;2159653;82;21575;-79
2021/01/21 08:44:01;;;;;;;45.77;28.03;;;;;;;1.76;73.05;98021.16;2159245;82;21261;-80
2021/01/21 08:47:02;;;;;;;46.00;27.07;;;;;;;1.85;73.23;98025.31;2158876;82;21572;-79
2021/01/21 08:50:03;;;;;;;37.63;23.87;;;;;;;1.93;73.07;98020.00;2158394;82;21162;-80
2021/01/21 08:53:04;;;;;;;46.27;27.30;;;;;;;1.98;72.60;98018.45;2159396;82;21094;-79
2021/01/21 08:56:06;;;;;;;47.40;28.70;;;;;;;2.04;72.36;98021.64;2158397;82;21772;-80
2021/01/21 08:59:07;;;;;;;44.30;27.80;;;;;;;2.12;72.50;98027.48;2157750;82;21293;-80
2021/01/21 09:02:08;;;;;;;51.50;28.70;;;;;;;2.29;72.07;98031.00;2157865;82;21590;-80
2021/01/21 09:05:09;;;;;;;46.80;28.30;;;;;;;2.35;71.98;98032.07;2158188;82;21087;-78
2021/01/21 09:08:10;;;;;;;45.23;27.27;;;;;;;2.50;71.86;98038.98;2158184;82;21599;-79
2021/01/21 09:11:11;;;;;;;65.47;39.10;;;;;;;2.67;70.87;98030.50;2158487;82;21329;-79
2021/01/21 09:14:12;;;;;;;43.17;27.63;;;;;;;2.78;71.35;98030.40;2157669;82;21285;-77
2021/01/21 09:17:13;;;;;;;42.97;26.20;;;;;;;2.93;71.15;98026.09;2157987;82;21249;-79
2021/01/21 09:20:15;;;;;;;39.37;25.17;;;;;;;3.07;70.72;98023.50;2158640;82;21166;-80
2021/01/21 09:23:17;;;;;;;44.67;26.13;;;;;;;3.19;70.09;98022.55;2157176;82;21123;-79
2021/01/21 09:26:20;;;;;;;42.40;26.30;;;;;;;3.33;70.32;98015.59;2157256;82;21329;-77
2021/01/21 09:29:21;;;;;;;44.37;25.97;;;;;;;3.45;69.96;98015.92;2157901;82;21265;-82
2021/01/21 09:32:22;;;;;;;42.47;26.20;;;;;;;3.54;69.34;98009.75;2158839;81;21292;-80
2021/01/21 09:35:23;;;;;;;41.50;25.47;;;;;;;3.49;69.08;98003.17;2158067;82;21406;-80
2021/01/21 09:38:25;;;;;;;45.47;28.57;;;;;;;3.49;69.12;98001.89;2158462;82;21249;-79
2021/01/21 09:41:26;;;;;;;45.43;29.07;;;;;;;3.50;69.38;97998.89;2159087;82;21245;-81
2021/01/21 09:44:27;;;;;;;48.20;29.27;;;;;;;3.54;69.10;97999.42;2158755;82;21887;-79
2021/01/21 09:47:28;;;;;;;48.53;29.30;;;;;;;3.58;68.82;97994.80;2159177;82;21123;-79
2021/01/21 09:50:29;;;;;;;50.73;30.47;;;;;;;3.62;68.87;97989.30;2159377;82;21281;-80
2021/01/21 09:53:30;;;;;;;44.57;28.37;;;;;;;3.70;68.99;97971.00;2159104;82;21242;-78
2021/01/21 09:56:31;;;;;;;47.27;29.63;;;;;;;3.76;68.12;97974.61;2159134;82;21305;-78
2021/01/21 09:59:32;;;;;;;49.73;28.97;;;;;;;3.78;68.35;97970.77;2160138;82;21143;-80
2021/01/21 10:02:34;;;;;;;41.53;26.00;;;;;;;3.83;68.41;97969.17;2158777;82;21574;-80
2021/01/21 10:05:35;;;;;;;50.03;30.87;;;;;;;3.89;67.92;97973.62;2158943;82;21661;-79
2021/01/21 10:08:36;;;;;;;45.43;28.37;;;;;;;3.91;67.74;97973.23;2158790;82;21257;-82
2021/01/21 10:11:37;;;;;;;47.07;27.83;;;;;;;3.91;68.02;97965.48;2158843;82;21354;-79
2021/01/21 10:14:38;;;;;;;51.70;28.87;;;;;;;4.01;68.24;97957.13;2158421;82;21932;-80
2021/01/21 10:17:41;;;;;;;48.73;29.47;;;;;;;4.06;67.99;97956.81;2158382;82;21261;-79
2021/01/21 10:20:42;;;;;;;43.53;27.80;;;;;;;4.16;68.06;97969.09;2159231;82;21158;-80
2021/01/21 10:23:43;;;;;;;45.10;26.97;;;;;;;4.28;67.75;97963.34;2159652;82;21127;-80
2021/01/21 10:26:44;;;;;;;46.20;27.73;;;;;;;4.36;67.47;97957.53;2160011;82;21126;-79
2021/01/21 10:29:45;;;;;;;47.57;29.77;;;;;;;4.48;67.71;97962.09;2158158;82;21264;-80
2021/01/21 10:32:48;;;;;;;50.87;29.03;;;;;;;4.54;67.10;97956.19;2164768;81;21284;-78
2021/01/21 10:35:49;;;;;;;49.33;29.70;;;;;;;4.61;67.34;97952.89;2175097;82;21263;-79
2021/01/21 10:38:50;;;;;;;44.47;28.57;;;;;;;4.70;67.00;97955.66;2175866;81;21257;-79
2021/01/21 10:41:51;;;;;;;45.37;28.27;;;;;;;4.78;66.42;97950.23;2175939;82;21311;-78
2021/01/21 10:44:52;;;;;;;46.30;29.77;;;;;;;4.84;66.13;97947.77;2175435;81;21288;-80
2021/01/21 10:47:53;;;;;;;42.63;27.83;;;;;;;4.93;66.46;97947.95;2175768;81;21248;-80
2021/01/21 10:50:54;;;;;;;48.53;28.07;;;;;;;4.96;65.86;97943.25;2176278;82;21231;-79
2021/01/21 10:53:56;;;;;;;41.93;26.53;;;;;;;4.99;65.91;97945.90;2175041;81;21575;-80
2021/01/21 10:56:57;;;;;;;44.73;27.73;;;;;;;5.08;65.95;97946.95;2176318;82;21253;-79
2021/01/21 10:59:59;;;;;;;44.87;27.73;;;;;;;5.20;65.95;97942.84;2175395;81;21256;-78
2021/01/21 11:03:00;;;;;;;48.33;30.20;;;;;;;5.28;65.55;97949.06;2175333;82;21711;-78
2021/01/21 11:06:01;;;;;;;46.67;28.10;;;;;;;5.39;65.85;97954.01;2175047;81;21268;-79
2021/01/21 11:09:02;;;;;;;56.70;34.07;;;;;;;5.49;65.09;97951.16;2175433;81;21244;-78
2021/01/21 11:12:03;;;;;;;44.13;27.07;;;;;;;5.57;65.54;97945.27;2175488;81;21300;-79
2021/01/21 11:15:04;;;;;;;45.37;27.77;;;;;;;5.65;65.00;97947.56;2175796;81;21651;-77
2021/01/21 11:18:05;;;;;;;41.73;26.60;;;;;;;5.69;64.96;97945.91;2175999;81;21114;-78
2021/01/21 11:21:06;;;;;;;42.70;27.10;;;;;;;5.74;64.87;97945.55;2175628;82;21265;-78
2021/01/21 11:24:07;;;;;;;43.87;27.60;;;;;;;5.75;64.82;97937.81;2174361;82;21557;-78
2021/01/21 11:27:08;;;;;;;42.03;25.67;;;;;;;5.82;64.83;97937.91;2175110;81;21257;-78
2021/01/21 11:30:09;;;;;;;42.13;26.87;;;;;;;5.85;64.44;97929.77;2174878;81;21237;-78
2021/01/21 11:33:11;;;;;;;44.83;27.20;;;;;;;5.96;64.13;97931.26;2168613;81;21591;-79
2021/01/21 11:36:12;;;;;;;45.73;27.87;;;;;;;5.96;64.13;97931.26;2158486;82;21126;-78
2021/01/21 11:39:13;;;;;;;41.87;27.40;;;;;;;6.04;64.13;97932.25;2158950;82;21249;-78
2021/01/21 11:42:14;;;;;;;41.90;27.10;;;;;;;6.20;63.81;97924.30;2158155;82;21245;-78
2021/01/21 11:45:15;;;;;;;42.47;28.53;;;;;;;6.20;63.81;97924.30;2158169;82;21253;-76
2021/01/21 11:48:18;;;;;;;45.27;26.43;;;;;;;6.27;63.98;97911.88;2158743;82;21224;-79
2021/01/21 11:51:20;;;;;;;40.87;26.03;;;;;;;6.36;63.79;97916.77;2158369;82;21285;-79
2021/01/21 11:54:21;;;;;;;82.40;53.07;;;;;;;6.48;63.58;97907.41;2159217;82;21298;-79
2021/01/21 11:57:22;;;;;;;37.43;25.23;;;;;;;6.59;63.19;97907.98;2158718;82;21253;-78
2021/01/21 12:00:23;;;;;;;44.90;27.00;;;;;;;6.59;62.49;97900.20;2159084;82;21515;-78
2021/01/21 12:03:24;;;;;;;41.20;25.03;;;;;;;6.62;62.85;97901.55;2158661;82;21208;-80
2021/01/21 12:06:25;;;;;;;39.80;23.43;;;;;;;6.68;62.97;97889.95;2158693;82;21293;-78
2021/01/21 12:09:26;;;;;;;34.37;21.93;;;;;;;6.81;62.42;97885.77;2158880;82;21594;-80
2021/01/21 12:12:28;;;;;;;36.83;23.60;;;;;;;6.85;62.21;97884.95;2158542;82;21325;-80
2021/01/21 12:15:29;;;;;;;38.07;22.50;;;;;;;6.91;61.87;97874.64;2158593;82;21272;-79
2021/01/21 12:18:30;;;;;;;31.57;21.80;;;;;;;6.97;61.39;97871.28;2158491;82;21103;-79
2021/01/21 12:21:31;;;;;;;34.50;22.67;;;;;;;6.96;61.39;97878.19;2157885;82;21123;-77
2021/01/21 12:24:32;;;;;;;36.90;23.20;;;;;;;7.01;61.66;97867.43;2158091;82;21249;-77
2021/01/21 12:27:33;;;;;;;35.27;21.73;;;;;;;7.12;61.37;97866.24;2157829;82;21301;-80
2021/01/21 12:30:34;;;;;;;32.57;21.17;;;;;;;7.20;60.68;97870.20;2158563;82;21261;-81
2021/01/21 12:33:35;;;;;;;35.20;22.47;;;;;;;7.21;61.17;97854.65;2165107;81;21161;-79
2021/01/21 12:36:36;;;;;;;37.20;21.40;;;;;;;7.30;61.36;97856.45;2175750;81;21295;-80
2021/01/21 12:39:37;;;;;;;34.30;21.97;;;;;;;7.37;61.17;97859.98;2176693;81;21263;-80
2021/01/21 12:42:39;;;;;;;33.67;21.87;;;;;;;7.38;60.69;97865.61;2176544;81;21264;-80
2021/01/21 12:45:40;;;;;;;39.60;25.13;;;;;;;7.34;60.64;97859.52;2175539;81;21613;-77
2021/01/21 12:48:41;;;;;;;32.50;20.13;;;;;;;7.33;60.42;97857.78;2175592;81;21875;-79
2021/01/21 12:51:42;;;;;;;31.03;20.50;;;;;;;7.31;60.79;97860.80;2175036;81;21178;-79
2021/01/21 12:54:47;;;;;;;34.20;21.10;;;;;;;7.31;60.68;97860.80;2175820;81;21281;-79
2021/01/21 12:57:49;;;;;;;35.10;21.83;;;;;;;7.28;60.34;97859.47;2174529;82;21158;-78
2021/01/21 13:00:50;;;;;;;40.80;22.50;;;;;;;7.22;60.68;97858.98;2174233;81;21268;-81
2021/01/21 13:03:51;;;;;;;45.37;23.10;;;;;;;7.12;60.12;97862.77;2174322;82;21594;-80
2021/01/21 13:06:52;;;;;;;42.30;23.83;;;;;;;7.12;60.12;97862.77;2173813;81;21260;-79
2021/01/21 13:09:53;;;;;;;38.43;22.90;;;;;;;7.06;60.49;97867.91;2174677;81;21122;-80
2021/01/21 13:12:55;;;;;;;37.03;21.73;;;;;;;7.01;60.61;97857.05;2174703;82;21288;-80
2021/01/21 13:15:56;;;;;;;36.97;20.87;;;;;;;6.97;60.65;97863.06;2174932;81;21260;-79
2021/01/21 13:18:57;;;;;;;40.13;23.20;;;;;;;6.93;60.75;97860.39;2175946;81;21260;-80
2021/01/21 13:21:58;;;;;;;34.17;21.77;;;;;;;6.89;60.87;97869.87;2176020;81;21240;-80
2021/01/21 13:25:03;;;;;;;35.03;21.63;;;;;;;6.83;61.01;97874.98;2176507;81;21264;-79
2021/01/21 13:28:03;;;;;;;32.40;20.05;;;;;;;6.80;60.92;97881.44;2177241;81;21304;-80
2021/01/21 13:31:04;;;;;;;35.40;20.73;;;;;;;6.78;61.05;97878.38;2176813;81;21284;-78
2021/01/21 13:34:05;;;;;;;33.27;20.83;;;;;;;6.72;61.08;97877.88;2175308;81;21928;-81
2021/01/21 13:37:06;;;;;;;35.93;19.80;;;;;;;6.70;61.32;97873.11;2175609;81;21245;-79
2021/01/21 13:40:08;;;;;;;37.13;21.53;;;;;;;6.66;61.15;97873.92;2175843;82;21129;-81
2021/01/21 13:43:09;;;;;;;42.00;22.17;;;;;;;6.61;61.27;97869.98;2175941;81;21256;-78
2021/01/21 13:46:10;;;;;;;33.53;20.53;;;;;;;6.56;61.23;97865.59;2175885;82;21589;-82
2021/01/21 13:49:12;;;;;;;39.37;24.23;;;;;;;6.49;61.44;97867.67;2177022;81;21273;-81
2021/01/21 13:52:13;;;;;;;36.83;22.60;;;;;;;6.32;61.55;97869.63;2177542;81;21703;-80
2021/01/21 13:55:15;;;;;;;40.50;23.90;;;;;;;6.32;61.55;97869.63;2177408;81;21225;-81
2021/01/21 13:58:16;;;;;;;37.47;22.40;;;;;;;6.23;61.50;97875.98;2177692;81;21245;-81
2021/01/21 14:01:20;;;;;;;40.63;24.00;;;;;;;6.12;61.60;97874.97;2177030;82;21157;-81